createdAt,value
2018-12-29T00:10:48.201Z,3.75
2018-12-29T00:30:57.856Z,4.93
2018-12-29T00:51:07.424Z,6.56
2018-12-29T01:11:19.244Z,5.59
2018-12-29T01:31:18.782Z,2.24
2018-12-29T01:51:28.382Z,1.59
2018-12-29T02:11:37.972Z,2.20
2018-12-29T02:31:50.317Z,1.50
2018-12-29T02:51:49.904Z,1.82
2018-12-29T03:12:01.735Z,2.15
2018-12-29T03:32:01.343Z,2.33
2018-12-29T03:52:14.151Z,2.63
2018-12-29T04:12:13.658Z,3.10
2018-12-29T04:32:23.158Z,2.93
2018-12-29T04:52:32.668Z,2.73
2018-12-29T05:12:42.148Z,2.67
2018-12-29T05:32:56.188Z,5.01
2018-12-29T05:52:57.897Z,4.29
2018-12-29T06:12:57.459Z,2.48
2018-12-29T06:33:06.986Z,3.93
2018-12-29T06:53:16.532Z,3.11
2018-12-29T07:13:26.869Z,3.87
2018-12-29T07:33:26.407Z,4.20
2018-12-29T07:53:35.920Z,4.05
2018-12-29T08:13:45.402Z,5.56
2018-12-29T08:33:54.901Z,6.70
2018-12-29T08:54:04.590Z,6.24
2018-12-29T09:14:14.025Z,7.72
2018-12-29T09:34:23.529Z,8.97
2018-12-29T09:54:35.340Z,9.64
2018-12-29T10:14:34.811Z,11.95
2018-12-29T10:34:44.364Z,8.66
2018-12-29T10:54:53.926Z,9.09
2018-12-29T11:15:03.425Z,9.35
2018-12-29T11:35:15.297Z,8.09
2018-12-29T11:55:17.032Z,6.97
2018-12-29T12:15:16.628Z,7.07
2018-12-29T12:35:35.458Z,7.72
2018-12-29T12:55:37.144Z,7.01
2018-12-29T13:15:36.253Z,6.47
2018-12-29T13:35:45.791Z,6.66
2018-12-29T13:56:00.198Z,5.64
2018-12-29T14:15:59.716Z,4.78
2018-12-29T14:36:13.824Z,4.62
2018-12-29T14:56:18.388Z,3.96
2018-12-29T15:16:17.966Z,3.45
2018-12-29T15:36:27.570Z,2.29
2018-12-29T15:56:42.379Z,2.36
2018-12-29T16:16:42.054Z,2.76
2018-12-29T16:36:51.990Z,3.38
2018-12-29T16:57:07.696Z,2.62
2018-12-29T17:17:07.057Z,2.47
2018-12-29T17:37:22.568Z,2.17
2018-12-29T17:57:27.156Z,2.20
2018-12-29T18:17:34.104Z,2.45
2018-12-29T18:37:33.696Z,3.92
2018-12-29T18:57:48.389Z,3.60
2018-12-29T19:17:53.179Z,2.43
2018-12-29T19:37:58.741Z,3.77
2018-12-29T19:58:04.232Z,4.73
2018-12-29T20:18:03.680Z,5.11
2018-12-29T20:38:15.495Z,5.30
2018-12-29T20:58:15.089Z,6.26
2018-12-29T21:18:24.618Z,5.61
2018-12-29T21:38:34.143Z,4.72
2018-12-29T21:58:43.683Z,5.19
2018-12-29T22:18:53.205Z,4.32
2018-12-29T22:39:02.810Z,4.60
2018-12-29T22:59:12.326Z,5.99
2018-12-29T23:19:24.042Z,5.18
2018-12-29T23:39:23.488Z,4.93
2018-12-29T23:59:32.964Z,5.44
